createdAt,value
2018-08-24T00:00:00.861Z,6.00
2018-08-24T00:02:30.206Z,4.33
2018-08-24T00:04:59.551Z,5.00
2018-08-24T00:07:29.060Z,5.00
2018-08-24T00:09:58.407Z,4.90
2018-08-24T00:12:27.739Z,4.47
2018-08-24T00:14:57.053Z,4.90
2018-08-24T00:17:31.066Z,4.90
2018-08-24T00:20:01.123Z,4.77
2018-08-24T00:22:30.473Z,4.93
2018-08-24T00:24:59.761Z,5.27
2018-08-24T00:27:29.105Z,4.77
2018-08-24T00:29:58.451Z,5.20
2018-08-24T00:32:27.866Z,6.10
2018-08-24T00:34:57.288Z,5.50
2018-08-24T00:37:26.705Z,6.70
2018-08-24T00:39:56.112Z,5.60
2018-08-24T00:42:25.520Z,5.60
2018-08-24T00:44:54.841Z,5.37
2018-08-24T00:47:24.215Z,5.17
2018-08-24T00:49:53.603Z,5.30
2018-08-24T00:52:23.003Z,6.47
2018-08-24T00:54:52.381Z,5.23
2018-08-24T00:57:21.728Z,5.23
2018-08-24T00:59:51.122Z,5.13
2018-08-24T01:02:20.466Z,4.73
2018-08-24T01:04:49.809Z,5.13
2018-08-24T01:07:19.126Z,4.77
2018-08-24T01:09:48.462Z,5.40
2018-08-24T01:12:18.055Z,5.80
2018-08-24T01:14:48.679Z,4.70
2018-08-24T01:17:23.367Z,7.83
2018-08-24T01:19:52.775Z,5.10
2018-08-24T01:22:22.128Z,4.80
2018-08-24T01:24:51.477Z,5.10
2018-08-24T01:27:20.815Z,5.00
2018-08-24T01:29:50.194Z,5.13
2018-08-24T01:32:19.555Z,5.57
2018-08-24T01:34:48.957Z,5.87
2018-08-24T01:37:18.407Z,5.70
2018-08-24T01:39:47.829Z,6.73
2018-08-24T01:42:17.222Z,5.67
2018-08-24T01:44:46.586Z,5.43
2018-08-24T01:47:15.998Z,6.23
2018-08-24T01:49:45.359Z,5.27
2018-08-24T01:52:14.760Z,5.33
2018-08-24T01:54:44.138Z,6.10
2018-08-24T01:57:13.499Z,5.50
2018-08-24T01:59:43.075Z,5.53
2018-08-24T02:02:12.471Z,5.60
2018-08-24T02:04:41.835Z,4.60
2018-08-24T02:07:11.338Z,5.50
2018-08-24T02:09:40.671Z,4.58
2018-08-24T02:12:14.142Z,5.53
2018-08-24T02:14:43.503Z,6.07
2018-08-24T02:17:17.953Z,4.77
2018-08-24T02:19:52.645Z,6.70
2018-08-24T02:22:21.958Z,6.33
2018-08-24T02:24:51.359Z,4.83
2018-08-24T02:27:20.660Z,5.47
2018-08-24T02:29:54.033Z,5.30
2018-08-24T02:32:23.331Z,6.50
2018-08-24T02:34:52.590Z,5.77
2018-08-24T02:37:21.958Z,5.47
2018-08-24T02:39:51.255Z,5.90
2018-08-24T02:42:20.620Z,4.43
2018-08-24T02:44:49.876Z,5.03
2018-08-24T02:47:19.164Z,5.77
2018-08-24T02:49:48.493Z,4.50
2018-08-24T02:52:17.804Z,6.83
2018-08-24T02:54:47.085Z,5.17
2018-08-24T02:57:16.393Z,5.57
2018-08-24T02:59:45.722Z,4.80
2018-08-24T03:02:15.288Z,4.97
2018-08-24T03:04:44.587Z,4.37
2018-08-24T03:07:13.931Z,6.20
2018-08-24T03:09:44.519Z,5.07
2018-08-24T03:12:13.779Z,5.83
2018-08-24T03:14:43.414Z,5.00
2018-08-24T03:17:17.995Z,5.37
2018-08-24T03:19:47.601Z,4.70
2018-08-24T03:22:16.996Z,4.93
2018-08-24T03:24:46.801Z,4.43
2018-08-24T03:27:16.437Z,5.20
2018-08-24T03:29:45.748Z,4.65
2018-08-24T03:32:15.048Z,5.77
2018-08-24T03:34:44.343Z,7.83
2018-08-24T03:37:13.725Z,4.70
2018-08-24T03:39:43.062Z,5.00
2018-08-24T03:42:12.644Z,4.90
2018-08-24T03:44:42.798Z,4.97
2018-08-24T03:47:12.358Z,4.80
2018-08-24T03:49:41.736Z,5.93
2018-08-24T03:52:11.118Z,5.53
2018-08-24T03:54:40.445Z,4.80
2018-08-24T03:57:09.792Z,4.77
2018-08-24T03:59:39.154Z,5.97
2018-08-24T04:02:11.180Z,6.10
2018-08-24T04:04:40.952Z,4.80
2018-08-24T04:07:10.274Z,4.60
2018-08-24T04:09:39.580Z,4.63
2018-08-24T04:12:08.914Z,4.93
2018-08-24T04:14:38.252Z,5.57
2018-08-24T04:17:12.742Z,5.37
2018-08-24T04:19:42.042Z,5.50
2018-08-24T04:22:11.332Z,5.77
2018-08-24T04:24:40.635Z,4.47
2018-08-24T04:27:09.973Z,5.43
2018-08-24T04:29:39.394Z,4.93
2018-08-24T04:32:08.672Z,6.07
2018-08-24T04:34:37.944Z,4.83
2018-08-24T04:37:07.291Z,5.90
2018-08-24T04:39:36.611Z,4.43
2018-08-24T04:42:06.236Z,6.60
2018-08-24T04:44:35.601Z,4.77
2018-08-24T04:47:04.891Z,4.80
2018-08-24T04:49:34.191Z,5.27
2018-08-24T04:52:03.511Z,4.67
2018-08-24T04:54:32.934Z,4.27
2018-08-24T04:57:02.309Z,4.13
2018-08-24T04:59:31.646Z,3.93
2018-08-24T05:02:00.976Z,4.10
2018-08-24T05:04:30.327Z,4.63
2018-08-24T05:06:59.641Z,5.03
2018-08-24T05:09:28.991Z,4.90
2018-08-24T05:11:58.344Z,3.70
2018-08-24T05:14:27.671Z,4.10
2018-08-24T05:16:58.260Z,3.87
2018-08-24T05:19:27.557Z,4.80
2018-08-24T05:21:56.965Z,4.90
2018-08-24T05:24:26.279Z,5.17
2018-08-24T05:26:55.647Z,4.30
2018-08-24T05:29:24.951Z,6.40
2018-08-24T05:31:54.283Z,4.43
2018-08-24T05:34:23.656Z,4.10
2018-08-24T05:36:52.979Z,4.63
2018-08-24T05:39:22.331Z,4.40
2018-08-24T05:41:51.579Z,5.77
2018-08-24T05:44:20.916Z,5.27
2018-08-24T05:46:50.345Z,4.33
2018-08-24T05:49:19.720Z,7.87
2018-08-24T05:51:49.071Z,5.33
2018-08-24T05:54:18.449Z,5.90
2018-08-24T05:56:47.802Z,6.63
2018-08-24T05:59:17.118Z,4.00
2018-08-24T06:01:46.575Z,3.98
2018-08-24T06:04:15.907Z,5.78
2018-08-24T06:06:45.275Z,4.80
2018-08-24T06:09:15.630Z,5.70
2018-08-24T06:11:45.175Z,6.17
2018-08-24T06:14:14.766Z,4.80
2018-08-24T06:16:47.450Z,4.33
2018-08-24T06:19:16.716Z,6.50
2018-08-24T06:21:46.096Z,5.83
2018-08-24T06:24:15.499Z,6.20
2018-08-24T06:26:44.875Z,4.78
2018-08-24T06:29:14.212Z,6.97
2018-08-24T06:31:43.559Z,5.75
2018-08-24T06:34:12.901Z,6.35
2018-08-24T06:36:42.215Z,6.17
2018-08-24T06:39:13.060Z,8.60
2018-08-24T06:41:43.340Z,3.50
2018-08-24T06:44:12.721Z,3.60
2018-08-24T06:46:42.051Z,3.70
2018-08-24T06:49:11.335Z,3.93
2018-08-24T06:51:40.679Z,4.22
2018-08-24T06:54:10.016Z,3.83
2018-08-24T06:56:39.366Z,4.05
2018-08-24T06:59:08.711Z,3.55
2018-08-24T07:01:38.028Z,3.40
2018-08-24T07:04:07.335Z,4.80
2018-08-24T07:06:36.661Z,3.60
2018-08-24T07:09:08.047Z,3.42
2018-08-24T07:11:37.463Z,3.50
2018-08-24T07:14:06.844Z,3.50
2018-08-24T07:16:36.189Z,4.50
2018-08-24T07:19:05.532Z,3.37
2018-08-24T07:21:34.885Z,4.58
2018-08-24T07:24:04.330Z,3.50
2018-08-24T07:26:33.672Z,4.13
2018-08-24T07:29:03.016Z,4.50
2018-08-24T07:31:32.401Z,5.58
2018-08-24T07:36:42.465Z,3.62
2018-08-24T07:39:13.547Z,3.52
2018-08-24T07:41:43.057Z,7.70
2018-08-24T07:44:12.676Z,3.50
2018-08-24T07:46:42.035Z,5.40
2018-08-24T07:49:11.256Z,3.42
2018-08-24T07:51:40.478Z,3.30
2018-08-24T07:54:09.743Z,3.20
2018-08-24T07:56:38.987Z,4.10
2018-08-24T07:59:08.247Z,4.65
2018-08-24T08:01:37.508Z,3.40
2018-08-24T08:04:06.761Z,3.37
2018-08-24T08:06:35.995Z,4.37
2018-08-24T08:09:07.414Z,3.30
2018-08-24T08:11:40.338Z,3.70
2018-08-24T08:14:10.053Z,3.55
2018-08-24T08:16:39.317Z,4.58
2018-08-24T08:19:08.532Z,3.75
2018-08-24T08:21:37.778Z,3.70
2018-08-24T08:24:07.067Z,3.80
2018-08-24T08:26:36.487Z,5.35
2018-08-24T08:29:05.712Z,4.22
2018-08-24T08:31:34.947Z,5.70
2018-08-24T08:34:04.191Z,4.13
2018-08-24T08:36:33.402Z,3.80
2018-08-24T08:39:02.717Z,3.72
2018-08-24T08:41:31.915Z,3.60
2018-08-24T08:44:01.445Z,3.60
2018-08-24T08:46:30.776Z,3.40
2018-08-24T08:49:00.044Z,3.80
2018-08-24T08:51:30.318Z,4.00
2018-08-24T08:53:59.565Z,4.08
2018-08-24T08:56:28.827Z,5.58
2018-08-24T08:58:58.148Z,6.37
2018-08-24T09:01:27.392Z,3.87
2018-08-24T09:03:56.664Z,4.17
2018-08-24T09:06:25.936Z,4.28
2018-08-24T09:08:55.154Z,3.90
2018-08-24T09:11:24.387Z,4.67
2018-08-24T09:13:53.615Z,4.92
2018-08-24T09:16:22.847Z,5.83
2018-08-24T09:18:57.198Z,5.05
2018-08-24T09:21:31.676Z,5.12
2018-08-24T09:26:10.115Z,4.60
2018-08-24T09:28:40.011Z,8.05
2018-08-24T09:31:40.827Z,4.33
2018-08-24T09:34:10.050Z,4.72
2018-08-24T09:36:39.333Z,4.20
2018-08-24T09:39:09.576Z,6.65
2018-08-24T09:41:38.794Z,4.40
2018-08-24T09:44:08.018Z,5.47
2018-08-24T09:46:42.422Z,5.37
2018-08-24T09:49:16.798Z,6.00
2018-08-24T09:51:46.027Z,8.33
2018-08-24T09:54:15.263Z,8.37
2018-08-24T09:56:44.977Z,5.18
2018-08-24T09:59:14.497Z,5.08
2018-08-24T10:01:49.115Z,6.30
2018-08-24T10:04:23.820Z,5.40
2018-08-24T10:06:58.357Z,5.75
2018-08-24T10:09:27.609Z,6.10
2018-08-24T10:11:56.847Z,6.95
2018-08-24T10:14:26.114Z,6.92
2018-08-24T10:16:55.355Z,8.33
2018-08-24T10:19:24.603Z,7.25
2018-08-24T10:21:53.868Z,6.93
2018-08-24T10:24:23.111Z,7.62
2018-08-24T10:26:52.428Z,6.65
2018-08-24T10:29:21.804Z,6.28
2018-08-24T10:31:50.947Z,6.10
2018-08-24T10:34:20.250Z,6.53
2018-08-24T10:36:49.493Z,9.00
2018-08-24T10:39:18.758Z,7.15
2018-08-24T10:41:47.984Z,8.78
2018-08-24T10:44:17.243Z,6.97
2018-08-24T10:46:46.463Z,6.80
2018-08-24T10:49:15.775Z,5.33
2018-08-24T10:51:45.075Z,6.72
2018-08-24T10:54:14.323Z,7.67
2018-08-24T10:56:43.564Z,5.33
2018-08-24T10:59:12.802Z,5.60
2018-08-24T11:01:43.165Z,6.22
2018-08-24T11:04:12.407Z,6.55
2018-08-24T11:06:41.646Z,5.65
2018-08-24T11:09:11.459Z,6.47
2018-08-24T11:11:40.694Z,5.10
2018-08-24T11:14:10.128Z,6.75
2018-08-24T11:16:39.407Z,5.35
2018-08-24T11:19:08.623Z,5.73
2018-08-24T11:21:37.850Z,5.80
2018-08-24T11:24:07.286Z,5.45
2018-08-24T11:26:36.595Z,6.55
2018-08-24T11:29:05.877Z,6.30
2018-08-24T11:31:35.145Z,6.47
2018-08-24T11:34:04.473Z,8.33
2018-08-24T11:36:33.735Z,6.10
2018-08-24T11:39:03.010Z,6.47
2018-08-24T11:41:32.262Z,7.20
2018-08-24T11:44:01.504Z,6.40
2018-08-24T11:46:48.681Z,5.95
2018-08-24T11:49:17.909Z,5.83
2018-08-24T11:51:47.142Z,6.50
2018-08-24T11:54:16.381Z,6.90
2018-08-24T11:56:45.627Z,4.90
2018-08-24T11:59:14.913Z,6.23
2018-08-24T12:01:44.152Z,5.43
2018-08-24T12:04:13.401Z,5.17
2018-08-24T12:06:42.654Z,5.78
2018-08-24T12:09:11.929Z,4.95
2018-08-24T12:11:41.377Z,6.23
2018-08-24T12:14:10.682Z,6.33
2018-08-24T12:16:39.914Z,6.22
2018-08-24T12:19:09.142Z,4.42
2018-08-24T12:21:38.437Z,5.47
2018-08-24T12:24:07.631Z,6.53
2018-08-24T12:26:36.890Z,4.80
2018-08-24T12:29:06.319Z,4.93
2018-08-24T12:31:35.721Z,4.83
2018-08-24T12:34:04.991Z,5.08
2018-08-24T12:36:34.535Z,5.70
2018-08-24T12:39:04.828Z,7.83
2018-08-24T12:41:34.865Z,5.00
2018-08-24T12:44:05.360Z,5.00
2018-08-24T12:46:34.746Z,5.30
2018-08-24T12:49:03.990Z,5.53
2018-08-24T12:51:33.230Z,5.83
2018-08-24T12:54:02.473Z,5.53
2018-08-24T12:56:32.984Z,5.33
2018-08-24T12:59:02.243Z,5.72
2018-08-24T13:01:31.504Z,6.90
2018-08-24T13:04:00.748Z,5.10
2018-08-24T13:06:29.988Z,5.83
2018-08-24T13:08:59.255Z,6.00
2018-08-24T13:11:28.503Z,8.03
2018-08-24T13:13:57.756Z,6.08
2018-08-24T13:16:27.227Z,6.00
2018-08-24T13:18:56.484Z,5.50
2018-08-24T13:21:25.756Z,6.12
2018-08-24T13:23:54.954Z,5.33
2018-08-24T13:26:24.200Z,5.57
2018-08-24T13:28:53.454Z,5.53
2018-08-24T13:31:22.708Z,6.25
2018-08-24T13:33:51.938Z,6.12
2018-08-24T13:36:21.190Z,5.28
2018-08-24T13:38:50.439Z,5.10
2018-08-24T13:41:19.700Z,5.03
2018-08-24T13:43:49.068Z,4.85
2018-08-24T13:46:19.687Z,5.47
2018-08-24T13:48:49.908Z,5.78
2018-08-24T13:51:19.299Z,5.20
2018-08-24T13:53:48.532Z,5.90
2018-08-24T13:56:17.768Z,5.12
2018-08-24T13:58:47.014Z,4.87
2018-08-24T14:01:16.251Z,6.10
2018-08-24T14:03:45.483Z,6.47
2018-08-24T14:06:14.728Z,5.50
2018-08-24T14:08:43.982Z,6.45
2018-08-24T14:11:13.236Z,6.30
2018-08-24T14:13:42.479Z,5.97
2018-08-24T14:16:11.752Z,5.05
2018-08-24T14:18:41.051Z,7.57
2018-08-24T14:21:10.317Z,6.05
2018-08-24T14:23:39.535Z,7.78
2018-08-24T14:26:08.758Z,5.65
2018-08-24T14:28:38.011Z,8.53
2018-08-24T14:31:07.238Z,5.50
2018-08-24T14:33:36.482Z,5.60
2018-08-24T14:36:05.759Z,5.75
2018-08-24T14:38:35.007Z,6.77
2018-08-24T14:41:04.243Z,6.50
2018-08-24T14:43:33.472Z,6.10
2018-08-24T14:46:03.537Z,7.10
2018-08-24T14:48:32.779Z,7.25
2018-08-24T14:51:02.014Z,7.33
2018-08-24T14:53:31.248Z,8.63
2018-08-24T14:56:00.468Z,7.83
2018-08-24T14:58:29.965Z,6.80
2018-08-24T15:00:59.222Z,8.15
2018-08-24T15:03:28.690Z,7.40
2018-08-24T15:05:57.928Z,7.93
2018-08-24T15:08:27.153Z,6.70
2018-08-24T15:10:56.392Z,6.90
2018-08-24T15:13:25.606Z,7.83
2018-08-24T15:15:54.864Z,10.85
2018-08-24T15:18:24.100Z,7.20
2018-08-24T15:20:53.341Z,7.80
2018-08-24T15:23:22.599Z,7.37
2018-08-24T15:25:51.837Z,8.90
2018-08-24T15:28:21.064Z,9.37
2018-08-24T15:30:50.527Z,8.37
2018-08-24T15:33:19.749Z,9.50
2018-08-24T15:35:48.992Z,7.92
2018-08-24T15:38:18.238Z,9.73
2018-08-24T15:40:47.466Z,9.00
2018-08-24T15:43:16.697Z,13.07
2018-08-24T15:45:45.947Z,13.15
2018-08-24T15:48:15.203Z,13.18
2018-08-24T15:50:44.434Z,9.83
2018-08-24T15:53:13.807Z,12.57
2018-08-24T15:55:43.052Z,12.63
2018-08-24T15:58:12.510Z,14.20
2018-08-24T16:00:41.768Z,16.85
2018-08-24T16:03:11.018Z,16.43
2018-08-24T16:05:40.233Z,24.37
2018-08-24T16:08:09.473Z,31.57
2018-08-24T16:10:38.722Z,20.00
2018-08-24T16:13:08.119Z,19.40
2018-08-24T16:15:37.381Z,23.30
2018-08-24T16:18:11.811Z,24.23
2018-08-24T16:20:41.167Z,22.30
2018-08-24T16:23:10.487Z,25.40
2018-08-24T16:25:39.711Z,21.73
2018-08-24T16:28:08.930Z,23.80
2018-08-24T16:30:38.210Z,19.90
2018-08-24T16:33:07.582Z,22.07
2018-08-24T16:35:38.194Z,16.37
2018-08-24T16:38:07.446Z,15.83
2018-08-24T16:40:36.694Z,15.00
2018-08-24T16:43:05.957Z,15.97
2018-08-24T16:45:35.196Z,17.10
2018-08-24T16:48:04.446Z,13.73
2018-08-24T16:50:33.780Z,14.67
2018-08-24T16:53:03.066Z,13.63
2018-08-24T16:55:32.387Z,13.90
2018-08-24T16:58:01.697Z,17.00
2018-08-24T17:00:30.895Z,16.20
2018-08-24T17:03:00.163Z,14.43
2018-08-24T17:05:29.416Z,15.27
2018-08-24T17:07:58.662Z,16.10
2018-08-24T17:10:27.987Z,16.73
2018-08-24T17:12:57.285Z,17.50
2018-08-24T17:15:26.539Z,17.43
2018-08-24T17:17:55.755Z,17.17
2018-08-24T17:20:24.989Z,17.27
2018-08-24T17:22:55.487Z,16.67
2018-08-24T17:25:24.859Z,18.00
2018-08-24T17:27:54.123Z,19.07
2018-08-24T17:30:23.418Z,19.40
2018-08-24T17:32:52.704Z,20.27
2018-08-24T17:35:21.957Z,19.40
2018-08-24T17:37:51.228Z,18.83
2018-08-24T17:40:20.512Z,17.82
2018-08-24T17:42:49.769Z,17.97
2018-08-24T17:45:19.034Z,14.70
2018-08-24T17:47:48.299Z,13.30
2018-08-24T17:50:17.555Z,14.37
2018-08-24T17:52:46.809Z,13.33
2018-08-24T17:55:16.040Z,15.47
2018-08-24T17:57:45.309Z,14.27
2018-08-24T18:00:14.563Z,14.63
2018-08-24T18:02:43.824Z,13.73
2018-08-24T18:05:13.046Z,14.13
2018-08-24T18:07:42.298Z,13.23
2018-08-24T18:10:11.552Z,16.73
2018-08-24T18:12:40.803Z,15.40
2018-08-24T18:15:10.310Z,14.13
2018-08-24T18:17:39.307Z,12.07
2018-08-24T18:20:08.819Z,14.33
2018-08-24T18:22:38.921Z,12.63
2018-08-24T18:25:08.184Z,16.20
2018-08-24T18:27:37.433Z,13.13
2018-08-24T18:30:06.716Z,12.40
2018-08-24T18:32:35.964Z,12.00
2018-08-24T18:35:05.192Z,12.63
2018-08-24T18:37:34.598Z,14.47
2018-08-24T18:40:04.397Z,12.03
2018-08-24T18:42:33.970Z,16.23
2018-08-24T18:45:06.739Z,11.87
2018-08-24T18:47:36.679Z,15.10
2018-08-24T18:50:06.365Z,14.97
2018-08-24T18:52:35.603Z,10.93
2018-08-24T18:55:04.872Z,13.10
2018-08-24T18:57:34.820Z,10.87
2018-08-24T19:00:04.604Z,11.35
2018-08-24T19:02:34.322Z,12.47
2018-08-24T19:05:03.584Z,11.73
2018-08-24T19:07:32.770Z,10.97
2018-08-24T19:10:02.007Z,12.80
2018-08-24T19:12:32.508Z,10.87
2018-08-24T19:15:01.879Z,12.23
2018-08-24T19:17:36.369Z,13.20
2018-08-24T19:20:10.710Z,12.83
2018-08-24T19:22:43.156Z,12.77
2018-08-24T19:25:12.577Z,13.57
2018-08-24T19:27:47.114Z,12.85
2018-08-24T19:30:21.448Z,13.63
2018-08-24T19:32:50.686Z,13.67
2018-08-24T19:35:20.140Z,12.27
2018-08-24T19:37:49.602Z,14.53
2018-08-24T19:40:24.164Z,14.40
2018-08-24T19:42:53.684Z,12.67
2018-08-24T19:45:23.822Z,15.07
2018-08-24T19:47:58.985Z,14.13
2018-08-24T19:50:28.206Z,15.23
2018-08-24T19:52:57.467Z,14.10
2018-08-24T19:55:26.712Z,15.63
2018-08-24T19:58:01.199Z,15.43
2018-08-24T20:00:30.450Z,16.30
2018-08-24T20:02:59.683Z,16.33
2018-08-24T20:05:28.943Z,16.77
2018-08-24T20:08:03.263Z,14.07
2018-08-24T20:10:32.486Z,17.77
2018-08-24T20:13:01.763Z,19.20
2018-08-24T20:15:36.483Z,17.33
2018-08-24T20:18:05.915Z,17.07
2018-08-24T20:20:35.157Z,16.43
2018-08-24T20:23:04.419Z,17.00
2018-08-24T20:25:33.664Z,15.73
2018-08-24T20:28:02.887Z,18.23
2018-08-24T20:30:32.131Z,17.70
2018-08-24T20:33:01.362Z,18.23
2018-08-24T20:35:30.623Z,18.17
2018-08-24T20:37:59.860Z,15.50
2018-08-24T20:40:29.139Z,15.97
2018-08-24T20:42:58.412Z,16.05
2018-08-24T20:45:28.627Z,16.87
2018-08-24T20:47:57.931Z,17.10
2018-08-24T20:50:29.258Z,16.03
2018-08-24T20:52:58.512Z,20.02
2018-08-24T20:55:27.838Z,16.40
2018-08-24T20:57:57.705Z,18.00
2018-08-24T21:00:26.958Z,17.27
2018-08-24T21:02:56.228Z,18.43
2018-08-24T21:05:25.476Z,17.95
2018-08-24T21:07:54.734Z,17.07
2018-08-24T21:10:24.028Z,15.90
2018-08-24T21:12:53.227Z,16.10
2018-08-24T21:15:22.528Z,18.92
2018-08-24T21:17:51.759Z,16.57
2018-08-24T21:20:21.305Z,19.20
2018-08-24T21:22:50.527Z,20.23
2018-08-24T21:25:19.758Z,16.07
2018-08-24T21:27:48.998Z,16.90
2018-08-24T21:30:18.271Z,17.50
2018-08-24T21:32:47.491Z,19.23
2018-08-24T21:35:16.715Z,15.67
2018-08-24T21:37:45.973Z,16.23
2018-08-24T21:40:15.202Z,14.13
2018-08-24T21:42:44.431Z,16.37
2018-08-24T21:45:13.667Z,14.30
2018-08-24T21:47:42.911Z,16.20
2018-08-24T21:50:12.147Z,16.43
2018-08-24T21:52:41.455Z,16.33
2018-08-24T21:55:10.696Z,15.80
2018-08-24T21:57:39.922Z,15.47
2018-08-24T22:00:13.609Z,14.77
2018-08-24T22:02:42.955Z,16.10
2018-08-24T22:05:12.219Z,15.00
2018-08-24T22:07:41.449Z,21.15
2018-08-24T22:10:10.698Z,17.27
2018-08-24T22:12:39.955Z,14.97
2018-08-24T22:15:09.202Z,16.23
2018-08-24T22:17:38.430Z,15.50
2018-08-24T22:20:07.827Z,15.63
2018-08-24T22:22:37.067Z,14.90
2018-08-24T22:25:06.338Z,15.90
2018-08-24T22:27:35.590Z,16.37
2018-08-24T22:30:04.968Z,15.93
2018-08-24T22:32:34.143Z,15.97
2018-08-24T22:35:03.442Z,16.43
2018-08-24T22:37:32.740Z,15.40
2018-08-24T22:40:02.000Z,17.33
2018-08-24T22:42:31.372Z,15.40
2018-08-24T22:45:00.641Z,17.07
2018-08-24T22:47:31.128Z,14.83
2018-08-24T22:50:00.384Z,18.03
2018-08-24T22:52:29.637Z,17.97
2018-08-24T22:54:58.907Z,16.90
2018-08-24T22:57:28.164Z,17.53
2018-08-24T22:59:57.427Z,17.67
2018-08-24T23:02:26.700Z,16.17
2018-08-24T23:04:55.950Z,16.97
2018-08-24T23:07:25.262Z,19.07
2018-08-24T23:09:54.503Z,15.90
2018-08-24T23:12:23.730Z,15.37
2018-08-24T23:14:52.996Z,18.17
2018-08-24T23:17:22.240Z,18.25
2018-08-24T23:19:51.525Z,18.33
2018-08-24T23:22:20.798Z,16.87
2018-08-24T23:24:50.041Z,18.07
2018-08-24T23:27:19.272Z,19.10
2018-08-24T23:29:48.555Z,17.37
2018-08-24T23:32:17.892Z,19.07
2018-08-24T23:34:48.415Z,18.73
2018-08-24T23:37:17.662Z,17.63
2018-08-24T23:39:46.906Z,18.27
2018-08-24T23:42:16.152Z,15.80
2018-08-24T23:44:45.419Z,15.50
2018-08-24T23:47:14.663Z,19.20
2018-08-24T23:49:43.918Z,19.60
2018-08-24T23:52:13.246Z,16.60
2018-08-24T23:54:42.555Z,18.43
2018-08-24T23:57:12.054Z,17.37
2018-08-24T23:59:41.281Z,16.17
